Time;durP1;ratioP1;P1;durP2;ratioP2;P2;SDS_P1;SDS_P2;PMS_P1;PMS_P2;Temp;Humidity;BMP_temperature;BMP_pressure;BME280_temperature;BME280_humidity;BME280_pressure;Samples;Min_cycle;Max_cycle;Signal;HPM_P1;HPM_P2
2022/01/24 00:01:39;;;;;;;264.70;104.90;;;;;;;-2.96;79.56;100364.01;108435;1273;22713;-78
2022/01/24 00:04:08;;;;;;;300.40;108.50;;;;;;;-2.97;79.54;100362.11;108441;1273;25279;-76
2022/01/24 00:06:36;;;;;;;282.40;103.20;;;;;;;-2.98;79.53;100361.08;108400;1273;22538;-74
2022/01/24 00:09:04;;;;;;;278.30;104.60;;;;;;;-2.98;79.33;100362.27;108464;1273;22681;-73
2022/01/24 00:11:46;;;;;;;268.80;98.90;;;;;;;-2.98;79.07;100363.45;108446;1273;22556;-75
2022/01/24 00:27:26;;;;;;;252.70;95.90;;;;;;;-2.94;79.66;100352.27;108424;1273;23024;-78
2022/01/24 00:29:53;;;;;;;307.30;113.30;;;;;;;-2.96;79.54;100358.03;108436;1273;22630;-75
2022/01/24 00:32:20;;;;;;;300.50;112.50;;;;;;;-2.98;79.36;100361.42;108430;1274;22620;-77
2022/01/24 00:34:46;;;;;;;296.40;113.50;;;;;;;-2.99;78.91;100363.10;108442;1274;24434;-76
2022/01/24 00:37:13;;;;;;;309.90;116.10;;;;;;;-3.04;78.90;100359.43;108447;1273;22571;-75
2022/01/24 00:39:40;;;;;;;252.10;94.30;;;;;;;-3.05;78.91;100361.48;108422;1274;23975;-76
2022/01/24 00:44:50;;;;;;;233.70;89.80;;;;;;;-2.98;78.87;100366.52;108428;1273;22555;-72
2022/01/24 00:47:28;;;;;;;225.90;86.20;;;;;;;-2.96;79.17;100369.63;108429;1274;22573;-75
2022/01/24 00:55:47;;;;;;;244.70;91.70;;;;;;;-3.01;79.05;100373.96;108276;1274;22570;-74
2022/01/24 00:58:15;;;;;;;230.00;85.80;;;;;;;-3.04;79.01;100367.27;108451;1272;22563;-73
2022/01/24 01:00:41;;;;;;;229.00;91.70;;;;;;;-3.06;78.69;100365.21;108432;1274;22565;-73
2022/01/24 01:03:09;;;;;;;203.20;82.20;;;;;;;-3.09;78.63;100359.02;108460;1273;22682;-77
2022/01/24 01:19:16;;;;;;;219.90;81.50;;;;;;;-3.19;79.15;100337.02;108427;1274;22568;-77
2022/01/24 01:21:43;;;;;;;181.70;70.10;;;;;;;-3.21;78.92;100341.41;108446;1273;22577;-73
2022/01/24 01:24:10;;;;;;;167.30;67.20;;;;;;;-3.25;78.59;100341.70;108289;1273;22557;-74
2022/01/24 01:26:43;;;;;;;182.60;72.60;;;;;;;-3.28;78.61;100339.24;108238;1273;26900;-72
2022/01/24 01:29:24;;;;;;;169.20;70.50;;;;;;;-3.26;78.69;100335.70;108224;1273;26671;-72
2022/01/24 01:54:13;;;;;;;85.70;35.30;;;;;;;-3.50;78.19;100346.19;108227;1273;22582;-74
2022/01/24 01:56:37;;;;;;;97.80;38.60;;;;;;;-3.56;77.74;100343.84;108205;1273;24381;-73
2022/01/24 01:59:04;;;;;;;113.50;48.90;;;;;;;-3.58;78.20;100344.33;108208;1273;22544;-74
2022/01/24 02:01:31;;;;;;;110.90;47.60;;;;;;;-3.58;78.81;100345.87;108235;1272;22731;-73
2022/01/24 02:04:02;;;;;;;103.80;42.70;;;;;;;-3.58;79.10;100347.05;108230;1273;22661;-76
2022/01/24 02:06:30;;;;;;;104.20;45.60;;;;;;;-3.59;78.95;100349.95;108232;1273;22803;-73
2022/01/24 02:09:12;;;;;;;112.10;48.20;;;;;;;-3.58;78.64;100356.75;108240;1273;22586;-74
2022/01/24 02:11:39;;;;;;;135.90;52.60;;;;;;;-3.55;78.42;100356.29;108270;1273;22666;-76
2022/01/24 02:14:15;;;;;;;140.10;54.10;;;;;;;-3.55;78.31;100356.82;108238;1273;22617;-73
2022/01/24 02:16:51;;;;;;;124.10;50.50;;;;;;;-3.55;78.19;100357.16;108213;1273;22605;-76
2022/01/24 02:24:52;;;;;;;134.10;52.20;;;;;;;-3.59;77.73;100370.38;108262;1273;22577;-74
2022/01/24 02:27:21;;;;;;;115.70;43.60;;;;;;;-3.60;77.75;100369.66;108206;1273;22578;-73
2022/01/24 02:32:42;;;;;;;115.70;45.80;;;;;;;-3.61;77.52;100369.65;108092;1273;22571;-76
2022/01/24 02:35:09;;;;;;;114.00;46.30;;;;;;;-3.58;77.79;100368.52;108220;1273;22547;-77
2022/01/24 02:37:36;;;;;;;145.90;53.50;;;;;;;-3.58;78.23;100366.64;108230;1273;22641;-76
2022/01/24 02:48:26;;;;;;;139.20;57.40;;;;;;;-3.55;78.03;100378.28;108250;1274;22556;-76
2022/01/24 02:53:32;;;;;;;145.20;57.90;;;;;;;-3.53;77.64;100377.28;108267;1273;25502;-75
2022/01/24 02:56:00;;;;;;;145.80;59.00;;;;;;;-3.55;77.59;100375.36;108227;1273;22588;-74
2022/01/24 02:58:28;;;;;;;145.20;58.50;;;;;;;-3.57;77.48;100380.95;108234;1273;22629;-77
2022/01/24 03:00:56;;;;;;;151.90;60.10;;;;;;;-3.57;77.71;100383.35;108232;1273;25389;-74
2022/01/24 03:03:23;;;;;;;148.70;67.00;;;;;;;-3.52;77.64;100384.48;108241;1273;22564;-73
2022/01/24 03:05:50;;;;;;;152.90;65.10;;;;;;;-3.49;77.58;100386.39;108212;1273;22645;-78
2022/01/24 03:08:21;;;;;;;144.80;58.60;;;;;;;-3.47;78.24;100389.83;108219;1273;22665;-75
2022/01/24 03:10:48;;;;;;;139.00;59.80;;;;;;;-3.48;78.57;100394.92;108225;1273;26310;-72
2022/01/24 03:15:46;;;;;;;142.90;59.10;;;;;;;-3.51;78.24;100395.55;108222;1273;22620;-75
2022/01/24 03:18:13;;;;;;;143.70;57.90;;;;;;;-3.54;78.10;100394.65;108219;1273;25532;-75
2022/01/24 03:20:40;;;;;;;133.50;56.60;;;;;;;-3.56;78.07;100393.06;108214;1273;22661;-74
2022/01/24 03:23:08;;;;;;;139.50;57.20;;;;;;;-3.57;77.99;100390.82;108232;1273;22733;-75
2022/01/24 03:25:35;;;;;;;132.00;56.70;;;;;;;-3.58;77.80;100395.59;108223;1273;23134;-73
2022/01/24 03:28:03;;;;;;;136.30;57.80;;;;;;;-3.55;77.67;100399.21;108203;1273;22555;-73
2022/01/24 03:30:32;;;;;;;130.10;52.70;;;;;;;-3.52;77.86;100395.54;108217;1273;22677;-74
2022/01/24 03:33:00;;;;;;;128.20;53.40;;;;;;;-3.52;78.15;100397.08;108201;1273;23489;-72
2022/01/24 03:35:27;;;;;;;147.90;59.40;;;;;;;-3.54;78.33;100394.81;108208;1273;22576;-72
2022/01/24 03:37:54;;;;;;;132.30;55.60;;;;;;;-3.58;78.36;100395.25;108234;1273;26244;-73
2022/01/24 03:40:21;;;;;;;136.60;55.80;;;;;;;-3.63;78.19;100395.84;108208;1273;25517;-72
2022/01/24 03:42:48;;;;;;;135.30;56.20;;;;;;;-3.66;78.08;100393.90;108207;1273;23446;-78
2022/01/24 03:45:23;;;;;;;136.40;57.00;;;;;;;-3.67;77.77;100399.67;108227;1273;22677;-74
2022/01/24 03:50:51;;;;;;;144.50;57.60;;;;;;;-3.70;77.53;100398.59;108099;1273;22684;-74
2022/01/24 03:53:18;;;;;;;132.50;60.40;;;;;;;-3.67;77.69;100395.08;108236;1273;23225;-76
2022/01/24 03:55:44;;;;;;;131.00;54.50;;;;;;;-3.64;78.09;100396.66;108211;1273;22553;-74
2022/01/24 03:58:11;;;;;;;143.00;56.90;;;;;;;-3.63;78.44;100396.69;108201;1273;22767;-76
2022/01/24 04:00:38;;;;;;;171.10;67.60;;;;;;;-3.61;78.43;100397.40;108210;1273;22563;-73
2022/01/24 04:03:05;;;;;;;177.40;75.70;;;;;;;-3.63;78.21;100398.39;108225;1273;23158;-76
2022/01/24 04:05:32;;;;;;;172.80;68.50;;;;;;;-3.67;78.23;100394.58;108187;1273;22625;-76
2022/01/24 04:07:59;;;;;;;150.80;62.30;;;;;;;-3.71;78.00;100398.06;108210;1273;22562;-74
2022/01/24 04:10:26;;;;;;;148.70;61.90;;;;;;;-3.75;77.76;100398.48;108209;1273;24261;-72
2022/01/24 04:12:53;;;;;;;158.70;65.80;;;;;;;-3.83;77.65;100396.78;108218;1273;24305;-73
2022/01/24 04:18:08;;;;;;;203.90;76.40;;;;;;;-3.85;77.80;100396.39;108242;1273;22622;-72
2022/01/24 04:23:21;;;;;;;182.10;66.20;;;;;;;-3.89;78.40;100401.27;108199;1273;22738;-73
2022/01/24 04:25:48;;;;;;;174.70;68.20;;;;;;;-3.92;78.54;100401.54;108224;1273;25399;-72
2022/01/24 04:28:15;;;;;;;239.80;86.80;;;;;;;-3.98;78.08;100407.70;108252;1273;22565;-72
2022/01/24 04:30:42;;;;;;;239.70;95.50;;;;;;;-4.06;78.01;100412.81;108251;1273;24428;-76
2022/01/24 04:33:09;;;;;;;174.00;69.40;;;;;;;-4.12;77.77;100411.49;108201;1273;22900;-75
2022/01/24 04:35:36;;;;;;;295.90;103.70;;;;;;;-4.16;77.52;100409.87;108187;1273;22635;-73
2022/01/24 04:38:03;;;;;;;324.90;114.00;;;;;;;-4.24;77.60;100413.61;108212;1273;22621;-76
2022/01/24 04:40:30;;;;;;;366.70;122.60;;;;;;;-4.30;77.73;100414.16;108237;1274;22632;-78
2022/01/24 04:43:16;;;;;;;269.90;103.40;;;;;;;-4.32;77.49;100418.20;108236;1273;22708;-78
2022/01/24 04:46:42;;;;;;;181.20;73.90;;;;;;;-4.32;77.38;100420.07;108237;1273;24936;-79
2022/01/24 04:54:04;;;;;;;156.40;70.90;;;;;;;-4.45;78.41;100426.89;108238;1273;22628;-73
2022/01/24 04:56:31;;;;;;;141.30;59.00;;;;;;;-4.49;78.10;100420.67;108201;1273;22592;-74
2022/01/24 04:58:58;;;;;;;131.10;53.60;;;;;;;-4.55;78.10;100414.58;108171;1273;22550;-75
2022/01/24 05:01:25;;;;;;;139.00;55.80;;;;;;;-4.60;77.73;100413.11;108225;1273;22562;-77
2022/01/24 05:03:53;;;;;;;134.10;55.10;;;;;;;-4.65;77.85;100414.52;108293;1273;22637;-77
2022/01/24 05:06:20;;;;;;;159.40;60.60;;;;;;;-4.70;77.76;100416.27;108237;1273;22560;-73
2022/01/24 05:08:47;;;;;;;208.30;77.00;;;;;;;-4.75;77.58;100417.34;108219;1273;22636;-73
2022/01/24 05:11:19;;;;;;;210.00;79.50;;;;;;;-4.74;77.41;100417.36;108189;1273;22557;-76
2022/01/24 05:24:46;;;;;;;177.00;71.10;;;;;;;-4.95;78.04;100418.03;108400;1274;22572;-75
2022/01/24 05:27:14;;;;;;;170.40;63.00;;;;;;;-5.01;77.71;100422.12;108481;1273;22548;-78
2022/01/24 05:29:40;;;;;;;149.70;58.10;;;;;;;-5.06;77.75;100421.30;108458;1273;22763;-76
2022/01/24 05:32:08;;;;;;;147.10;57.40;;;;;;;-5.12;77.58;100422.02;108444;1273;22555;-74
2022/01/24 05:34:36;;;;;;;163.50;62.40;;;;;;;-5.16;77.41;100426.13;108461;1273;22590;-74
2022/01/24 05:37:03;;;;;;;192.50;78.50;;;;;;;-5.17;77.35;100426.80;108479;1273;22583;-76
2022/01/24 05:39:30;;;;;;;202.10;80.90;;;;;;;-5.17;77.62;100426.78;108248;1273;22575;-76
2022/01/24 05:41:57;;;;;;;201.80;75.20;;;;;;;-5.20;78.05;100428.42;108286;1273;22585;-73
2022/01/24 05:44:24;;;;;;;242.60;88.80;;;;;;;-5.23;78.32;100426.63;108292;1271;22681;-77
2022/01/24 05:46:51;;;;;;;269.30;96.00;;;;;;;-5.25;78.16;100424.36;108240;1273;22741;-76
2022/01/24 05:49:18;;;;;;;257.80;92.40;;;;;;;-5.27;78.08;100428.21;108241;1273;22733;-71
2022/01/24 05:51:45;;;;;;;256.80;95.90;;;;;;;-5.30;77.90;100433.78;108228;1273;22571;-77
2022/01/24 05:54:12;;;;;;;226.40;93.00;;;;;;;-5.33;77.89;100431.80;108257;1273;22818;-73
2022/01/24 05:56:39;;;;;;;215.10;81.70;;;;;;;-5.35;77.59;100433.77;108242;1273;24431;-72
2022/01/24 05:59:06;;;;;;;210.60;81.20;;;;;;;-5.38;77.52;100436.95;108272;1274;25376;-76
2022/01/24 06:01:32;;;;;;;234.70;90.00;;;;;;;-5.40;77.52;100436.55;108259;1273;22537;-73
2022/01/24 06:03:59;;;;;;;222.50;90.50;;;;;;;-5.35;77.53;100438.54;108230;1273;22573;-78
2022/01/24 06:06:27;;;;;;;210.20;84.60;;;;;;;-5.33;77.81;100432.84;108239;1274;24370;-72
2022/01/24 06:08:54;;;;;;;167.70;67.70;;;;;;;-5.30;78.27;100433.42;108144;1274;22866;-75
2022/01/24 06:11:24;;;;;;;254.20;98.90;;;;;;;-5.33;78.73;100439.46;108245;1273;22742;-74
2022/01/24 06:13:52;;;;;;;202.90;81.40;;;;;;;-5.35;78.34;100439.73;108229;1273;22723;-75
2022/01/24 06:16:19;;;;;;;177.70;65.50;;;;;;;-5.34;78.06;100442.46;108197;1273;26432;-75
2022/01/24 06:18:46;;;;;;;134.80;51.80;;;;;;;-5.36;78.01;100446.48;108232;1273;25439;-77
2022/01/24 06:21:13;;;;;;;144.10;50.80;;;;;;;-5.36;77.68;100446.15;108231;1273;22618;-78
2022/01/24 06:23:40;;;;;;;128.30;44.70;;;;;;;-5.35;77.70;100448.05;108240;1273;22604;-76
2022/01/24 06:26:07;;;;;;;139.70;49.30;;;;;;;-5.33;77.35;100452.36;108217;1273;22587;-74
2022/01/24 06:28:33;;;;;;;126.70;44.90;;;;;;;-5.32;77.41;100455.80;108214;1273;22749;-72
2022/01/24 06:31:00;;;;;;;95.50;39.30;;;;;;;-5.30;77.26;100453.98;108221;1273;22575;-76
2022/01/24 06:33:27;;;;;;;94.90;38.10;;;;;;;-5.27;77.13;100459.31;108224;1273;22588;-75
2022/01/24 06:35:54;;;;;;;89.70;39.10;;;;;;;-5.18;76.97;100458.02;108261;1273;22548;-73
2022/01/24 06:38:21;;;;;;;92.80;38.50;;;;;;;-5.11;77.22;100455.67;108226;1273;24250;-73
2022/01/24 06:40:48;;;;;;;87.60;36.40;;;;;;;-5.05;77.79;100464.52;108211;1273;23142;-75
2022/01/24 06:43:16;;;;;;;87.10;36.50;;;;;;;-5.00;77.90;100466.99;108201;1273;24419;-73
2022/01/24 06:45:43;;;;;;;80.40;36.30;;;;;;;-5.00;77.77;100468.54;108226;1273;22618;-74
2022/01/24 06:48:10;;;;;;;83.50;36.20;;;;;;;-4.96;77.43;100475.43;108201;1271;22628;-76
2022/01/24 06:50:37;;;;;;;89.40;36.50;;;;;;;-4.92;77.17;100472.48;108197;1273;22556;-74
2022/01/24 06:53:03;;;;;;;89.90;35.60;;;;;;;-4.87;76.99;100475.66;108243;1273;25257;-75
2022/01/24 06:55:31;;;;;;;94.30;39.10;;;;;;;-4.86;76.58;100479.61;108234;1273;22561;-74
2022/01/24 06:57:58;;;;;;;93.60;40.60;;;;;;;-4.84;76.29;100482.88;108160;1274;24144;-76
2022/01/24 07:00:30;;;;;;;68.80;31.60;;;;;;;-4.81;76.16;100487.86;108234;1273;23148;-77
2022/01/24 07:02:58;;;;;;;84.10;39.00;;;;;;;-4.76;76.08;100492.27;108227;1273;22587;-76
2022/01/24 07:05:26;;;;;;;83.40;37.80;;;;;;;-4.72;76.22;100495.26;108321;1273;22629;-75
2022/01/24 07:07:57;;;;;;;76.60;37.60;;;;;;;-4.68;76.22;100491.13;108217;1274;23749;-76
2022/01/24 07:10:25;;;;;;;85.10;36.10;;;;;;;-4.66;75.56;100494.41;108492;1273;22551;-74
2022/01/24 07:12:52;;;;;;;83.00;38.00;;;;;;;-4.63;76.03;100505.02;108221;1273;22575;-74
2022/01/24 07:15:22;;;;;;;95.10;39.80;;;;;;;-4.63;75.86;100501.95;108220;1274;22524;-75
2022/01/24 07:20:28;;;;;;;83.10;36.40;;;;;;;-4.51;76.40;100508.20;108214;1273;22627;-73
2022/01/24 07:22:55;;;;;;;89.20;39.00;;;;;;;-4.48;77.10;100510.16;108235;1273;22704;-77
2022/01/24 07:25:22;;;;;;;106.10;42.90;;;;;;;-4.49;76.89;100517.96;108248;1274;22687;-76
2022/01/24 07:27:49;;;;;;;101.00;44.30;;;;;;;-4.46;76.49;100507.98;108210;1273;22588;-74
2022/01/24 07:30:16;;;;;;;97.90;43.00;;;;;;;-4.43;75.89;100507.05;108211;1274;25451;-76
2022/01/24 07:32:43;;;;;;;115.40;45.10;;;;;;;-4.40;75.77;100499.15;108218;1274;22712;-75
2022/01/24 07:35:10;;;;;;;130.00;49.30;;;;;;;-4.37;75.27;100502.09;108237;1273;22710;-73
2022/01/24 07:37:37;;;;;;;105.30;41.60;;;;;;;-4.35;75.12;100500.09;108209;1273;22549;-73
2022/01/24 07:40:07;;;;;;;107.70;43.20;;;;;;;-4.33;75.20;100496.92;108234;1273;22901;-76
2022/01/24 07:45:18;;;;;;;77.30;35.50;;;;;;;-4.23;75.04;100490.04;108240;1273;22539;-75
2022/01/24 07:47:47;;;;;;;78.30;34.10;;;;;;;-4.19;74.88;100507.12;108250;1273;22585;-74
2022/01/24 07:50:22;;;;;;;94.60;39.20;;;;;;;-4.14;74.94;100496.52;108221;1274;22613;-73
2022/01/24 07:52:49;;;;;;;85.80;36.50;;;;;;;-4.06;74.59;100508.61;108219;1274;22590;-76
2022/01/24 07:55:16;;;;;;;82.30;35.80;;;;;;;-3.96;74.78;100497.78;108229;1274;24229;-73
2022/01/24 07:57:43;;;;;;;87.50;38.20;;;;;;;-3.87;74.42;100505.48;108189;1273;22734;-77
2022/01/24 08:00:11;;;;;;;75.70;34.70;;;;;;;-3.76;74.53;100504.52;108237;1273;24316;-72
2022/01/24 08:02:39;;;;;;;68.50;30.70;;;;;;;-3.66;74.72;100510.02;108190;1273;24221;-71
2022/01/24 08:05:08;;;;;;;104.30;46.60;;;;;;;-3.56;74.40;100511.45;108290;1273;22541;-72
2022/01/24 08:07:36;;;;;;;84.80;37.90;;;;;;;-3.45;74.36;100509.65;108237;1273;22570;-72
2022/01/24 08:10:05;;;;;;;89.70;41.10;;;;;;;-3.29;74.56;100504.17;108235;1274;25255;-74
2022/01/24 08:12:34;;;;;;;72.10;32.30;;;;;;;-3.13;75.14;100508.41;108289;1273;23939;-76
2022/01/24 08:15:03;;;;;;;68.10;32.40;;;;;;;-3.00;75.32;100508.49;108222;1273;22727;-72
2022/01/24 08:17:30;;;;;;;78.80;36.90;;;;;;;-2.88;75.20;100508.55;108218;1273;22547;-72
2022/01/24 08:19:58;;;;;;;74.70;35.50;;;;;;;-2.78;74.93;100512.32;108238;1273;22600;-72
2022/01/24 08:22:25;;;;;;;59.00;27.40;;;;;;;-2.70;74.39;100509.05;108235;1273;22611;-72
2022/01/24 08:24:52;;;;;;;56.80;27.20;;;;;;;-2.65;73.37;100516.46;108253;1273;22538;-72
2022/01/24 08:27:19;;;;;;;53.10;24.50;;;;;;;-2.61;73.01;100514.15;108216;1274;23841;-75
2022/01/24 08:29:48;;;;;;;44.40;20.30;;;;;;;-2.59;71.80;100517.77;108217;1274;22620;-72
2022/01/24 08:32:17;;;;;;;44.90;20.40;;;;;;;-2.57;71.58;100517.61;108219;1274;22557;-72
2022/01/24 08:34:44;;;;;;;47.30;22.60;;;;;;;-2.56;71.92;100520.89;108359;1274;22658;-72
2022/01/24 08:37:11;;;;;;;47.10;22.40;;;;;;;-2.57;71.94;100512.16;108253;1273;24303;-72
2022/01/24 08:39:39;;;;;;;57.00;26.30;;;;;;;-2.56;71.86;100512.52;108199;1273;23445;-72
2022/01/24 08:42:15;;;;;;;56.50;24.40;;;;;;;-2.54;71.74;100514.45;108205;1274;22568;-73
2022/01/24 08:47:28;;;;;;;64.90;29.80;;;;;;;-2.44;71.52;100510.54;108207;1274;22703;-71
2022/01/24 08:49:56;;;;;;;74.10;35.30;;;;;;;-2.39;71.95;100518.97;108271;1274;22635;-74
2022/01/24 08:52:23;;;;;;;78.10;32.40;;;;;;;-2.34;71.72;100521.11;108575;1273;25602;-74
2022/01/24 08:54:50;;;;;;;58.40;27.10;;;;;;;-2.28;71.27;100512.84;108216;1274;22560;-72
2022/01/24 08:57:21;;;;;;;66.00;28.40;;;;;;;-2.21;71.04;100519.27;108218;1274;22582;-72
2022/01/24 08:59:48;;;;;;;52.50;21.90;;;;;;;-2.16;71.27;100521.73;108268;1274;22569;-72
2022/01/24 09:02:15;;;;;;;53.40;25.60;;;;;;;-2.15;70.88;100521.25;108234;1273;25370;-72
2022/01/24 09:04:42;;;;;;;55.70;26.60;;;;;;;-2.14;70.79;100529.09;108251;1273;22568;-72
2022/01/24 09:07:10;;;;;;;50.20;24.40;;;;;;;-2.12;70.83;100531.87;108281;1273;22566;-72
2022/01/24 09:09:37;;;;;;;68.10;29.50;;;;;;;-2.12;69.81;100540.75;108213;1274;22553;-75
2022/01/24 09:12:11;;;;;;;70.30;30.20;;;;;;;-2.09;70.47;100533.45;108212;1273;22616;-73
2022/01/24 09:14:41;;;;;;;60.40;26.30;;;;;;;-2.03;70.65;100531.66;108221;1274;22565;-73
2022/01/24 09:17:08;;;;;;;49.50;20.40;;;;;;;-2.00;70.15;100532.77;108151;1274;22562;-73
2022/01/24 09:19:34;;;;;;;51.00;21.80;;;;;;;-1.94;70.05;100534.71;108190;1273;22556;-73
2022/01/24 09:22:01;;;;;;;42.30;18.30;;;;;;;-1.87;70.19;100530.04;108199;1274;22568;-73
2022/01/24 09:24:28;;;;;;;46.00;21.90;;;;;;;-1.81;70.33;100523.98;108188;1273;22615;-75
2022/01/24 09:26:55;;;;;;;38.50;18.90;;;;;;;-1.73;70.06;100518.46;108244;1274;22639;-74
2022/01/24 09:29:22;;;;;;;45.70;21.70;;;;;;;-1.66;70.14;100517.02;108285;1273;22755;-75
2022/01/24 09:31:49;;;;;;;52.20;25.00;;;;;;;-1.58;69.58;100515.94;108280;1273;25296;-74
2022/01/24 09:34:16;;;;;;;50.70;24.90;;;;;;;-1.49;69.19;100519.81;108232;1273;22559;-74
2022/01/24 09:36:43;;;;;;;40.40;20.80;;;;;;;-1.40;69.51;100525.23;108245;1273;24403;-74
2022/01/24 09:39:10;;;;;;;42.40;21.20;;;;;;;-1.30;69.59;100520.40;108183;1273;22541;-74
2022/01/24 09:41:37;;;;;;;38.00;17.20;;;;;;;-1.19;69.86;100521.06;108218;1273;22559;-75
2022/01/24 09:44:04;;;;;;;46.20;21.10;;;;;;;-1.11;69.08;100515.86;108239;1274;22622;-73
2022/01/24 09:46:31;;;;;;;57.00;24.30;;;;;;;-1.08;68.96;100517.09;108260;1274;22704;-77
2022/01/24 09:48:58;;;;;;;46.70;21.10;;;;;;;-1.04;68.96;100520.71;108236;1274;22645;-77
2022/01/24 09:51:25;;;;;;;45.20;20.00;;;;;;;-1.04;68.91;100509.93;108208;1273;22558;-72
2022/01/24 09:53:52;;;;;;;38.50;18.90;;;;;;;-1.05;68.22;100505.98;108213;1273;24263;-73
2022/01/24 09:56:19;;;;;;;44.70;20.80;;;;;;;-1.04;68.95;100503.95;108203;1273;22634;-72
2022/01/24 09:58:46;;;;;;;43.80;19.50;;;;;;;-1.04;69.23;100499.52;108228;1273;22848;-72
2022/01/24 10:01:14;;;;;;;44.80;20.70;;;;;;;-1.03;69.18;100497.48;108255;1273;25509;-72
2022/01/24 10:04:17;;;;;;;43.40;19.80;;;;;;;-1.02;69.05;100494.23;108229;1273;22562;-74
2022/01/24 10:07:01;;;;;;;38.60;18.60;;;;;;;-1.08;68.53;100493.66;108213;1273;22677;-72
2022/01/24 10:09:41;;;;;;;51.90;23.70;;;;;;;-1.11;67.64;100491.06;108282;1273;25481;-77
2022/01/24 10:17:53;;;;;;;64.50;29.60;;;;;;;-1.02;68.86;100473.71;107769;1281;22831;-73
2022/01/24 10:20:30;;;;;;;87.20;39.20;;;;;;;-1.00;68.34;100470.83;108159;1273;22588;-73
2022/01/24 10:23:00;;;;;;;69.60;34.00;;;;;;;-0.97;68.81;100466.06;108169;1274;22641;-73
2022/01/24 10:25:27;;;;;;;49.30;23.60;;;;;;;-0.91;68.58;100473.67;108173;1274;22584;-74
2022/01/24 10:28:03;;;;;;;38.90;19.20;;;;;;;-0.89;67.11;100463.41;108226;1274;22707;-74
2022/01/24 10:30:32;;;;;;;35.40;18.20;;;;;;;-0.89;67.95;100457.42;108227;1273;22630;-75
2022/01/24 10:33:01;;;;;;;44.90;21.10;;;;;;;-0.89;68.00;100461.36;108258;1273;23417;-72
2022/01/24 10:35:38;;;;;;;48.10;20.90;;;;;;;-0.87;68.06;100454.88;108229;1274;22630;-73
2022/01/24 10:41:21;;;;;;;50.30;23.70;;;;;;;-0.74;67.83;100461.86;108233;1273;22656;-74
2022/01/24 10:43:52;;;;;;;47.70;19.80;;;;;;;-0.67;67.92;100464.81;108215;1274;22513;-73
2022/01/24 10:46:24;;;;;;;42.20;19.30;;;;;;;-0.63;67.30;100460.58;108235;1273;22715;-78
2022/01/24 10:49:09;;;;;;;38.60;19.00;;;;;;;-0.57;67.75;100460.64;108246;1273;22872;-76
2022/01/24 10:51:46;;;;;;;51.60;22.80;;;;;;;-0.57;67.75;100452.43;108215;1273;25327;-76
2022/01/24 10:54:14;;;;;;;44.60;20.60;;;;;;;-0.54;67.62;100453.14;108185;1273;22628;-74
2022/01/24 10:56:43;;;;;;;48.20;24.00;;;;;;;-0.49;67.60;100446.84;108241;1273;22623;-72
2022/01/24 10:59:22;;;;;;;40.80;19.00;;;;;;;-0.46;67.79;100444.48;108468;1273;25185;-74
2022/01/24 11:01:58;;;;;;;47.20;22.00;;;;;;;-0.47;66.89;100439.67;108162;1274;22566;-73
2022/01/24 11:04:26;;;;;;;51.10;24.90;;;;;;;-0.44;67.52;100433.70;108197;1274;22703;-73
2022/01/24 11:06:56;;;;;;;39.40;18.60;;;;;;;-0.40;67.47;100435.29;108188;1273;22658;-73
2022/01/24 11:09:43;;;;;;;40.50;20.70;;;;;;;-0.39;67.41;100433.74;108195;1274;22558;-73
2022/01/24 11:12:12;;;;;;;49.90;23.70;;;;;;;-0.41;66.73;100424.14;108213;1273;22559;-74
2022/01/24 11:14:42;;;;;;;54.40;23.90;;;;;;;-0.38;67.45;100427.59;108210;1274;22551;-74
2022/01/24 11:17:15;;;;;;;57.50;26.80;;;;;;;-0.33;67.19;100428.14;108202;1273;22557;-74
2022/01/24 11:19:50;;;;;;;51.20;25.50;;;;;;;-0.32;66.98;100427.98;108203;1274;25494;-74
2022/01/24 11:22:23;;;;;;;52.50;23.60;;;;;;;-0.32;66.56;100426.08;108216;1274;22826;-72
2022/01/24 11:24:58;;;;;;;59.80;27.70;;;;;;;-0.31;66.73;100426.60;108210;1273;22629;-73
2022/01/24 11:27:26;;;;;;;47.00;22.80;;;;;;;-0.30;66.91;100423.53;108196;1273;25762;-72
2022/01/24 11:29:57;;;;;;;50.90;22.60;;;;;;;-0.24;66.31;100418.61;108253;1273;22630;-72
2022/01/24 11:32:31;;;;;;;33.50;15.30;;;;;;;-0.19;66.38;100419.16;108249;1273;23118;-73
2022/01/24 11:34:59;;;;;;;34.90;15.20;;;;;;;-0.15;66.97;100417.81;108247;1274;22731;-72
2022/01/24 11:37:46;;;;;;;28.80;14.20;;;;;;;-0.16;67.04;100421.56;108231;1273;22638;-73
2022/01/24 11:40:17;;;;;;;33.40;16.50;;;;;;;-0.14;66.16;100413.89;108226;1274;22582;-71
2022/01/24 11:42:47;;;;;;;39.10;17.80;;;;;;;-0.07;66.65;100413.06;108220;1273;22765;-71
2022/01/24 11:45:18;;;;;;;35.80;17.40;;;;;;;-0.03;66.59;100410.87;108202;1273;22566;-72
2022/01/24 11:47:47;;;;;;;39.40;18.40;;;;;;;-0.03;66.60;100405.73;108213;1274;22633;-73
2022/01/24 11:50:37;;;;;;;36.70;17.10;;;;;;;0.02;66.22;100404.20;108182;1274;22612;-73
2022/01/24 11:53:27;;;;;;;35.30;17.10;;;;;;;-0.04;66.17;100404.86;108341;1277;22553;-79
2022/01/24 11:55:55;;;;;;;37.50;18.00;;;;;;;-0.01;65.94;100399.07;108440;1274;22639;-73
2022/01/24 11:58:30;;;;;;;71.50;25.50;;;;;;;0.05;66.03;100399.44;108429;1274;25319;-72
2022/01/24 12:01:03;;;;;;;46.50;18.90;;;;;;;0.13;66.30;100398.27;108465;1273;22849;-73
2022/01/24 12:03:30;;;;;;;35.10;16.20;;;;;;;0.16;65.57;100395.90;108412;1274;22547;-72
2022/01/24 12:06:09;;;;;;;34.50;17.10;;;;;;;0.13;65.77;100401.52;108470;1274;22558;-71
2022/01/24 12:08:38;;;;;;;40.00;17.30;;;;;;;0.09;65.32;100403.91;108454;1274;22539;-71
2022/01/24 12:11:35;;;;;;;36.00;17.20;;;;;;;0.08;65.59;100399.28;108420;1274;25312;-71
2022/01/24 12:14:18;;;;;;;33.50;16.80;;;;;;;0.09;65.72;100400.14;108418;1273;22597;-78
2022/01/24 12:16:45;;;;;;;51.90;23.30;;;;;;;0.10;65.25;100399.44;108413;1274;24668;-72
2022/01/24 12:19:13;;;;;;;53.40;26.10;;;;;;;0.11;65.86;100398.08;108432;1274;22566;-75
2022/01/24 12:21:41;;;;;;;48.30;24.10;;;;;;;0.11;65.43;100396.20;108467;1274;22553;-73
2022/01/24 12:24:13;;;;;;;58.30;27.20;;;;;;;0.13;65.76;100393.83;108466;1274;22553;-73
2022/01/24 12:26:49;;;;;;;62.90;26.80;;;;;;;0.13;65.76;100395.02;108465;1274;22578;-72
2022/01/24 12:29:21;;;;;;;47.40;21.90;;;;;;;0.10;64.88;100392.09;108430;1274;25369;-72
2022/01/24 12:31:52;;;;;;;45.00;23.00;;;;;;;0.10;65.44;100397.06;108376;1274;22686;-73
2022/01/24 12:34:22;;;;;;;46.20;23.90;;;;;;;0.13;65.38;100393.99;108331;1274;22673;-73
2022/01/24 12:37:00;;;;;;;44.90;20.70;;;;;;;0.18;65.81;100394.36;108349;1274;22567;-72
2022/01/24 12:39:33;;;;;;;47.10;22.00;;;;;;;0.19;65.02;100392.47;108333;1274;22670;-72
2022/01/24 12:42:10;;;;;;;55.90;24.60;;;;;;;0.14;65.62;100392.29;108365;1275;22528;-75
2022/01/24 12:47:15;;;;;;;44.60;20.30;;;;;;;0.11;65.69;100389.34;108458;1274;25490;-72
2022/01/24 12:49:43;;;;;;;43.30;20.30;;;;;;;0.08;64.51;100386.60;108434;1274;22782;-72
2022/01/24 12:52:16;;;;;;;46.50;20.50;;;;;;;0.02;65.21;100382.30;108385;1274;24217;-72
2022/01/24 12:54:47;;;;;;;48.00;24.40;;;;;;;-0.02;65.47;100381.08;108897;1273;22588;-72
2022/01/24 12:57:16;;;;;;;53.70;25.30;;;;;;;-0.04;65.19;100379.35;108204;1274;22692;-72
2022/01/24 13:00:03;;;;;;;51.20;24.90;;;;;;;-0.04;65.42;100382.95;108210;1274;22565;-72
2022/01/24 13:02:32;;;;;;;62.10;28.00;;;;;;;-0.04;65.58;100377.29;108253;1274;23658;-71
2022/01/24 13:05:09;;;;;;;58.70;26.60;;;;;;;-0.04;65.43;100379.87;108247;1274;22547;-70
2022/01/24 13:07:38;;;;;;;58.40;27.20;;;;;;;-0.08;65.38;100373.66;108226;1274;22579;-71
2022/01/24 13:10:12;;;;;;;58.40;25.00;;;;;;;-0.11;65.31;100373.84;108216;1274;23253;-72
2022/01/24 13:12:41;;;;;;;72.10;30.50;;;;;;;-0.11;65.45;100374.86;108213;1274;22654;-72
2022/01/24 13:15:24;;;;;;;68.00;32.40;;;;;;;-0.10;65.19;100372.98;108276;1274;25341;-74